Time;durP1;ratioP1;P1;durP2;ratioP2;P2;SDS_P1;SDS_P2;PMS_P1;PMS_P2;Temp;Humidity;BMP_temperature;BMP_pressure;BME280_temperature;BME280_humidity;BME280_pressure;Samples;Min_cycle;Max_cycle;Signal;HPM_P1;HPM_P2
2021/05/22 00:01:33;;;;;;;10.75;5.03;;;;;;;;;;5014592;28;20014;-70
2021/05/22 00:04:00;;;;;;;9.55;5.30;;;;;;;;;;5015852;28;20058;-70
2021/05/22 00:06:27;;;;;;;13.70;5.20;;;;;;;;;;5012547;28;20038;-70
2021/05/22 00:08:54;;;;;;;9.52;5.30;;;;;;;;;;5015679;28;20076;-70
2021/05/22 00:11:22;;;;;;;8.63;4.97;;;;;;;;;;5011469;28;20030;-70
2021/05/22 00:13:49;;;;;;;14.40;5.38;;;;;;;;;;5014340;28;20026;-71
2021/05/22 00:16:16;;;;;;;12.82;5.25;;;;;;;;;;5009219;28;20018;-70
2021/05/22 00:18:43;;;;;;;11.15;4.40;;;;;;;;;;5015589;28;20050;-69
2021/05/22 00:21:10;;;;;;;12.38;6.10;;;;;;;;;;5013332;28;20026;-69
2021/05/22 00:23:38;;;;;;;15.48;4.82;;;;;;;;;;5010443;28;20511;-69
2021/05/22 00:26:05;;;;;;;9.45;4.22;;;;;;;;;;5007062;28;20029;-69
2021/05/22 00:28:32;;;;;;;9.98;5.28;;;;;;;;;;5011539;28;20022;-70
2021/05/22 00:31:02;;;;;;;9.57;4.10;;;;;;;;;;5008838;28;20112;-70
2021/05/22 00:33:32;;;;;;;14.15;5.05;;;;;;;;;;5012348;28;20018;-69
2021/05/22 00:36:02;;;;;;;7.30;4.28;;;;;;;;;;5013923;28;20026;-69
2021/05/22 00:38:32;;;;;;;10.00;3.85;;;;;;;;;;5013556;28;20025;-70
2021/05/22 00:41:06;;;;;;;10.02;4.10;;;;;;;;;;5011308;28;20513;-68
2021/05/22 00:43:34;;;;;;;8.25;3.60;;;;;;;;;;5013268;28;20053;-69
2021/05/22 00:46:01;;;;;;;12.10;3.90;;;;;;;;;;5008095;28;20029;-69
2021/05/22 00:48:28;;;;;;;9.50;3.95;;;;;;;;;;5012703;28;20018;-68
2021/05/22 00:50:55;;;;;;;12.07;3.88;;;;;;;;;;5010821;28;20125;-66
2021/05/22 00:53:23;;;;;;;12.13;4.45;;;;;;;;;;5011181;28;20033;-69
2021/05/22 00:55:50;;;;;;;10.20;3.85;;;;;;;;;;5012710;28;20024;-69
2021/05/22 00:58:17;;;;;;;12.70;4.10;;;;;;;;;;5014724;28;20076;-69
2021/05/22 01:00:54;;;;;;;12.95;3.80;;;;;;;;;;5012111;28;20105;-69
2021/05/22 01:03:29;;;;;;;15.27;3.83;;;;;;;;;;5014648;28;20430;-69
2021/05/22 01:06:09;;;;;;;13.23;3.83;;;;;;;;;;5012863;28;20387;-69
2021/05/22 01:08:37;;;;;;;12.45;3.65;;;;;;;;;;5014979;28;20387;-69
2021/05/22 01:11:08;;;;;;;10.73;3.63;;;;;;;;;;5010527;28;20021;-69
2021/05/22 01:13:37;;;;;;;11.13;3.33;;;;;;;;;;5014651;28;20060;-69
2021/05/22 01:16:04;;;;;;;10.07;3.80;;;;;;;;;;5011045;28;20033;-69
2021/05/22 01:18:31;;;;;;;11.68;3.40;;;;;;;;;;5014852;28;20498;-69
2021/05/22 01:21:04;;;;;;;7.53;2.80;;;;;;;;;;5012749;28;20360;-69
2021/05/22 01:23:40;;;;;;;11.18;3.30;;;;;;;;;;5013529;28;20025;-69
2021/05/22 01:26:08;;;;;;;9.25;3.17;;;;;;;;;;5009908;28;20030;-69
2021/05/22 01:28:35;;;;;;;8.00;3.47;;;;;;;;;;5010788;28;20029;-70
2021/05/22 01:31:04;;;;;;;9.88;3.28;;;;;;;;;;5012681;28;20033;-69
2021/05/22 01:33:32;;;;;;;8.15;3.10;;;;;;;;;;5014505;28;20100;-69
2021/05/22 01:35:59;;;;;;;9.02;2.92;;;;;;;;;;5012581;28;20072;-69
2021/05/22 01:38:26;;;;;;;7.93;3.08;;;;;;;;;;5014324;28;20037;-70
2021/05/22 01:40:53;;;;;;;13.93;2.80;;;;;;;;;;5012537;28;20034;-69
2021/05/22 01:43:20;;;;;;;10.57;2.58;;;;;;;;;;5014423;28;20372;-70
2021/05/22 01:45:49;;;;;;;7.47;2.45;;;;;;;;;;5010435;28;20430;-69
2021/05/22 01:48:17;;;;;;;8.35;2.90;;;;;;;;;;5014339;28;20030;-69
2021/05/22 01:50:50;;;;;;;7.50;2.25;;;;;;;;;;5011823;28;20086;-69
2021/05/22 01:53:18;;;;;;;10.27;2.40;;;;;;;;;;5014215;28;20356;-69
2021/05/22 01:55:47;;;;;;;11.25;3.08;;;;;;;;;;5011681;28;20018;-69
2021/05/22 01:58:15;;;;;;;11.90;2.35;;;;;;;;;;5013969;28;20049;-69
2021/05/22 02:00:44;;;;;;;10.55;2.97;;;;;;;;;;5010757;28;20088;-69
2021/05/22 02:03:15;;;;;;;7.57;2.00;;;;;;;;;;5012817;28;20026;-69
2021/05/22 02:05:42;;;;;;;8.75;1.60;;;;;;;;;;5004113;28;20061;-69
2021/05/22 02:08:14;;;;;;;10.02;1.67;;;;;;;;;;5009811;28;20096;-69
2021/05/22 02:10:42;;;;;;;11.27;2.45;;;;;;;;;;5004021;28;20109;-69
2021/05/22 02:13:09;;;;;;;11.07;1.83;;;;;;;;;;5012374;28;20386;-70
2021/05/22 02:15:37;;;;;;;5.10;1.25;;;;;;;;;;5007420;28;20053;-69
2021/05/22 02:18:06;;;;;;;6.50;1.20;;;;;;;;;;5011512;28;20022;-69
2021/05/22 02:20:34;;;;;;;7.85;1.30;;;;;;;;;;5011466;28;20599;-69
2021/05/22 02:23:02;;;;;;;7.13;1.23;;;;;;;;;;5008108;28;20811;-70
2021/05/22 02:25:29;;;;;;;7.72;1.35;;;;;;;;;;5008587;28;20021;-70
2021/05/22 02:27:58;;;;;;;8.10;1.50;;;;;;;;;;5008801;28;20106;-69
2021/05/22 02:30:26;;;;;;;5.20;1.52;;;;;;;;;;5006806;28;20113;-70
2021/05/22 02:32:54;;;;;;;7.93;1.90;;;;;;;;;;5005260;28;20100;-70
2021/05/22 02:35:21;;;;;;;7.90;1.60;;;;;;;;;;5004002;28;20106;-70
2021/05/22 02:37:53;;;;;;;7.05;1.75;;;;;;;;;;5005367;28;20037;-67
2021/05/22 02:40:21;;;;;;;5.88;1.45;;;;;;;;;;5009812;28;20105;-67
2021/05/22 02:42:54;;;;;;;10.82;2.45;;;;;;;;;;5010277;28;20065;-68
2021/05/22 02:45:22;;;;;;;6.68;1.17;;;;;;;;;;5008702;28;20073;-67
2021/05/22 02:47:50;;;;;;;10.38;1.95;;;;;;;;;;5009115;28;20026;-67
2021/05/22 02:50:17;;;;;;;6.97;1.70;;;;;;;;;;5006907;28;20067;-67
2021/05/22 02:52:45;;;;;;;7.72;1.60;;;;;;;;;;5006266;28;20156;-68
2021/05/22 02:55:12;;;;;;;7.20;1.92;;;;;;;;;;5008974;28;20030;-67
2021/05/22 02:57:40;;;;;;;9.45;1.88;;;;;;;;;;5008805;28;20029;-69
2021/05/22 03:00:08;;;;;;;5.22;1.83;;;;;;;;;;5010625;28;20072;-68
2021/05/22 03:02:36;;;;;;;8.55;2.03;;;;;;;;;;5011591;28;20041;-69
2021/05/22 03:05:04;;;;;;;8.20;1.98;;;;;;;;;;5008574;28;20497;-68
2021/05/22 03:07:32;;;;;;;8.85;1.83;;;;;;;;;;5005817;28;20045;-69
2021/05/22 03:09:59;;;;;;;8.15;1.42;;;;;;;;;;5008570;28;20041;-68
2021/05/22 03:12:29;;;;;;;9.10;2.00;;;;;;;;;;5004074;28;20168;-68
2021/05/22 03:14:56;;;;;;;6.05;1.90;;;;;;;;;;5007078;28;20064;-68
2021/05/22 03:17:23;;;;;;;7.45;1.42;;;;;;;;;;5006748;28;20040;-68
2021/05/22 03:19:50;;;;;;;7.68;1.60;;;;;;;;;;5008025;28;21566;-69
2021/05/22 03:22:17;;;;;;;10.27;1.88;;;;;;;;;;5007999;28;20105;-69
2021/05/22 03:24:44;;;;;;;9.40;1.67;;;;;;;;;;5005515;28;20061;-69
2021/05/22 03:27:11;;;;;;;8.63;2.15;;;;;;;;;;5007819;28;20038;-68
2021/05/22 03:29:39;;;;;;;8.95;2.15;;;;;;;;;;5005769;28;20053;-69
2021/05/22 03:32:06;;;;;;;7.63;1.60;;;;;;;;;;5009748;28;20022;-69
2021/05/22 03:34:33;;;;;;;15.13;2.65;;;;;;;;;;5007553;28;20483;-69
2021/05/22 03:37:00;;;;;;;11.15;2.10;;;;;;;;;;5009627;28;20041;-68
2021/05/22 03:39:27;;;;;;;12.95;2.00;;;;;;;;;;5010498;28;20018;-68
2021/05/22 03:41:54;;;;;;;13.10;2.17;;;;;;;;;;5007444;28;20022;-69
2021/05/22 03:44:21;;;;;;;5.85;1.45;;;;;;;;;;5006628;28;20026;-68
2021/05/22 03:46:49;;;;;;;6.82;2.40;;;;;;;;;;5010393;28;20014;-67
2021/05/22 03:49:16;;;;;;;12.90;2.22;;;;;;;;;;5010440;28;20070;-68
2021/05/22 03:51:43;;;;;;;6.55;1.83;;;;;;;;;;5007072;28;20022;-69
2021/05/22 03:54:10;;;;;;;10.85;2.22;;;;;;;;;;5005975;28;20694;-69
2021/05/22 03:56:37;;;;;;;5.20;1.88;;;;;;;;;;5005062;28;20068;-69
2021/05/22 03:59:04;;;;;;;5.47;1.38;;;;;;;;;;5006939;28;20541;-69
2021/05/22 04:01:32;;;;;;;7.05;2.08;;;;;;;;;;5003880;28;20067;-69
2021/05/22 04:03:59;;;;;;;5.47;1.50;;;;;;;;;;5004154;28;20027;-69
2021/05/22 04:06:26;;;;;;;7.40;1.50;;;;;;;;;;5003538;28;20030;-69
2021/05/22 04:08:53;;;;;;;10.43;2.08;;;;;;;;;;5006457;28;20113;-69
2021/05/22 04:11:20;;;;;;;9.45;1.83;;;;;;;;;;5002725;28;20410;-70
2021/05/22 04:13:47;;;;;;;8.38;1.50;;;;;;;;;;5003336;28;20038;-69
2021/05/22 04:18:41;;;;;;;8.35;1.35;;;;;;;;;;5019481;23;20048;-69
2021/05/22 04:21:08;;;;;;;7.28;1.80;;;;;;;;;;5050031;28;20043;-69
2021/05/22 04:23:35;;;;;;;6.63;1.45;;;;;;;;;;5065251;28;20388;-69
2021/05/22 04:26:02;;;;;;;6.72;2.17;;;;;;;;;;5066186;28;20125;-69
2021/05/22 04:28:30;;;;;;;12.45;2.22;;;;;;;;;;5069050;28;20109;-68
2021/05/22 04:30:57;;;;;;;11.32;1.77;;;;;;;;;;5065999;28;20115;-69
2021/05/22 04:33:24;;;;;;;10.45;1.88;;;;;;;;;;5066004;28;20025;-69
2021/05/22 04:35:51;;;;;;;10.40;2.40;;;;;;;;;;5069140;28;20044;-69
2021/05/22 04:38:18;;;;;;;9.15;2.28;;;;;;;;;;5068595;28;20070;-69
2021/05/22 04:40:45;;;;;;;10.15;2.70;;;;;;;;;;5070190;28;20024;-69
2021/05/22 04:43:12;;;;;;;8.73;1.45;;;;;;;;;;5067231;28;20417;-68
2021/05/22 04:45:39;;;;;;;4.13;1.25;;;;;;;;;;5072782;28;20043;-69
2021/05/22 04:48:07;;;;;;;8.25;2.28;;;;;;;;;;5072232;28;20025;-69
2021/05/22 04:50:34;;;;;;;7.53;1.85;;;;;;;;;;5069691;28;20040;-69
2021/05/22 04:53:01;;;;;;;10.07;2.20;;;;;;;;;;5071515;28;20028;-69
2021/05/22 04:55:28;;;;;;;11.73;2.13;;;;;;;;;;5072725;28;20020;-69
2021/05/22 04:57:56;;;;;;;6.60;1.90;;;;;;;;;;5068554;28;20082;-69
2021/05/22 05:00:23;;;;;;;8.13;1.90;;;;;;;;;;5072908;28;20020;-69
2021/05/22 05:02:51;;;;;;;8.38;2.10;;;;;;;;;;5072952;28;20504;-69
2021/05/22 05:05:18;;;;;;;10.68;2.13;;;;;;;;;;5074259;28;20024;-69
2021/05/22 05:07:45;;;;;;;6.93;1.85;;;;;;;;;;5083052;28;20027;-67
2021/05/22 05:10:13;;;;;;;8.80;1.65;;;;;;;;;;5072452;28;20037;-67
2021/05/22 05:12:40;;;;;;;6.43;1.30;;;;;;;;;;5073278;28;20081;-68
2021/05/22 05:15:08;;;;;;;6.80;1.98;;;;;;;;;;5073058;28;20410;-68
2021/05/22 05:17:36;;;;;;;5.68;2.08;;;;;;;;;;5079630;28;20028;-68
2021/05/22 05:20:03;;;;;;;7.53;1.88;;;;;;;;;;5074341;28;20059;-67
2021/05/22 05:22:30;;;;;;;9.50;1.85;;;;;;;;;;5072604;28;20085;-68
2021/05/22 05:24:58;;;;;;;6.88;2.38;;;;;;;;;;5074475;28;20058;-67
2021/05/22 05:27:25;;;;;;;10.70;3.50;;;;;;;;;;5070698;28;20020;-68
2021/05/22 05:29:52;;;;;;;7.93;2.10;;;;;;;;;;5072206;28;20472;-67
2021/05/22 05:32:19;;;;;;;8.65;2.17;;;;;;;;;;5069559;28;20021;-68
2021/05/22 05:34:46;;;;;;;9.27;2.13;;;;;;;;;;5067699;28;20465;-68
2021/05/22 05:37:13;;;;;;;9.27;1.73;;;;;;;;;;5072883;28;20035;-67
2021/05/22 05:39:41;;;;;;;5.78;1.70;;;;;;;;;;5062287;28;20120;-68
2021/05/22 05:42:08;;;;;;;8.40;2.45;;;;;;;;;;5072313;28;20032;-69
2021/05/22 05:44:35;;;;;;;9.18;2.03;;;;;;;;;;5072574;28;20032;-68
2021/05/22 05:47:03;;;;;;;6.35;1.33;;;;;;;;;;5072288;28;20030;-68
2021/05/22 05:49:30;;;;;;;4.93;1.42;;;;;;;;;;5073955;28;20028;-68
2021/05/22 05:52:00;;;;;;;7.40;2.20;;;;;;;;;;5072643;28;20090;-68
2021/05/22 05:54:28;;;;;;;8.23;1.60;;;;;;;;;;5072541;28;20108;-68
2021/05/22 05:56:55;;;;;;;11.05;1.33;;;;;;;;;;5065211;28;20021;-68
2021/05/22 05:59:22;;;;;;;5.35;1.50;;;;;;;;;;5073846;28;20029;-68
2021/05/22 06:01:49;;;;;;;8.30;2.08;;;;;;;;;;5074097;28;20025;-68
2021/05/22 06:04:16;;;;;;;13.60;2.60;;;;;;;;;;5073231;28;20518;-68
2021/05/22 06:06:43;;;;;;;3.67;1.58;;;;;;;;;;5072742;28;20384;-68
2021/05/22 06:09:10;;;;;;;8.43;1.88;;;;;;;;;;5073313;28;20393;-68
2021/05/22 06:11:38;;;;;;;9.10;2.35;;;;;;;;;;5065111;28;20104;-67
2021/05/22 06:14:11;;;;;;;6.75;1.77;;;;;;;;;;5072940;28;20081;-68
2021/05/22 06:16:38;;;;;;;6.47;1.60;;;;;;;;;;5063053;28;20397;-67
2021/05/22 06:19:05;;;;;;;8.45;1.95;;;;;;;;;;5065075;28;20089;-68
2021/05/22 06:21:37;;;;;;;6.03;1.48;;;;;;;;;;5074616;28;20016;-68
2021/05/22 06:24:04;;;;;;;7.70;1.80;;;;;;;;;;5068575;28;20106;-67
2021/05/22 06:26:31;;;;;;;4.90;1.45;;;;;;;;;;5069448;28;20028;-68
2021/05/22 06:28:59;;;;;;;10.25;2.15;;;;;;;;;;5066662;28;20511;-68
2021/05/22 06:31:26;;;;;;;7.03;1.83;;;;;;;;;;5072678;28;20473;-67
2021/05/22 06:33:53;;;;;;;9.77;2.08;;;;;;;;;;5071703;28;20033;-69
2021/05/22 06:36:20;;;;;;;8.30;2.25;;;;;;;;;;5073375;28;20028;-71
2021/05/22 06:38:47;;;;;;;8.60;2.10;;;;;;;;;;5063873;28;20025;-71
2021/05/22 06:41:14;;;;;;;9.88;2.65;;;;;;;;;;5069484;28;20031;-71
2021/05/22 06:43:41;;;;;;;11.48;2.25;;;;;;;;;;5066967;28;20169;-71
2021/05/22 06:48:39;;;;;;;9.13;2.72;;;;;;;;;;5069117;28;20037;-70
2021/05/22 06:51:06;;;;;;;11.25;2.88;;;;;;;;;;5070611;28;20033;-70
2021/05/22 06:53:33;;;;;;;12.40;3.95;;;;;;;;;;5059300;28;20024;-70
2021/05/22 06:56:00;;;;;;;8.55;2.30;;;;;;;;;;5078618;28;20430;-71
2021/05/22 06:58:28;;;;;;;15.98;7.28;;;;;;;;;;5069105;28;20013;-70
2021/05/22 07:00:56;;;;;;;17.75;6.20;;;;;;;;;;5065350;28;20045;-70
2021/05/22 07:03:24;;;;;;;13.18;4.90;;;;;;;;;;5068727;28;20026;-71
2021/05/22 07:05:51;;;;;;;11.07;3.60;;;;;;;;;;5068977;28;20023;-70
2021/05/22 07:08:19;;;;;;;15.20;3.75;;;;;;;;;;5072547;28;20024;-71
2021/05/22 07:10:46;;;;;;;10.70;3.05;;;;;;;;;;5073604;28;20438;-70
2021/05/22 07:13:13;;;;;;;9.95;2.85;;;;;;;;;;5068663;28;20386;-71
2021/05/22 07:15:40;;;;;;;8.75;2.70;;;;;;;;;;5072006;28;20046;-71
2021/05/22 07:18:08;;;;;;;6.25;2.38;;;;;;;;;;5065668;28;20069;-71
2021/05/22 07:20:35;;;;;;;8.32;2.78;;;;;;;;;;5062468;28;20060;-73
2021/05/22 07:23:02;;;;;;;9.20;2.55;;;;;;;;;;5069521;28;20512;-71
2021/05/22 07:25:29;;;;;;;9.20;2.65;;;;;;;;;;5068149;28;20032;-71
2021/05/22 07:27:59;;;;;;;12.10;2.83;;;;;;;;;;5064976;28;20048;-72
2021/05/22 07:30:26;;;;;;;10.02;2.85;;;;;;;;;;5066464;28;20054;-71
2021/05/22 07:32:53;;;;;;;11.88;4.53;;;;;;;;;;5068142;28;20028;-71
2021/05/22 07:35:21;;;;;;;9.25;3.78;;;;;;;;;;5067202;28;20032;-71
2021/05/22 07:37:48;;;;;;;15.75;6.60;;;;;;;;;;5071112;28;20024;-71
2021/05/22 07:40:15;;;;;;;11.13;5.55;;;;;;;;;;5067694;28;20039;-72
2021/05/22 07:42:48;;;;;;;13.77;6.10;;;;;;;;;;5062315;28;20021;-71
2021/05/22 07:45:16;;;;;;;18.73;6.55;;;;;;;;;;5058705;28;20019;-72
2021/05/22 07:47:44;;;;;;;11.63;6.35;;;;;;;;;;5058542;28;20086;-72
2021/05/22 07:50:11;;;;;;;13.63;4.75;;;;;;;;;;5068063;28;20115;-72
2021/05/22 07:52:40;;;;;;;13.07;4.88;;;;;;;;;;5060366;28;20346;-72
2021/05/22 07:55:11;;;;;;;13.60;4.82;;;;;;;;;;5070964;28;20031;-72
2021/05/22 07:57:38;;;;;;;13.65;4.63;;;;;;;;;;5067341;28;20508;-72
2021/05/22 08:00:07;;;;;;;11.93;4.97;;;;;;;;;;5054478;28;20039;-71
2021/05/22 08:02:34;;;;;;;11.70;4.65;;;;;;;;;;5062383;28;20028;-72
2021/05/22 08:05:01;;;;;;;12.73;4.72;;;;;;;;;;5071115;28;20085;-72
2021/05/22 08:07:29;;;;;;;12.13;4.65;;;;;;;;;;5064522;28;20428;-71
2021/05/22 08:09:56;;;;;;;14.63;4.53;;;;;;;;;;5072838;28;20032;-72
2021/05/22 08:12:23;;;;;;;13.57;4.88;;;;;;;;;;5070435;28;20023;-72
2021/05/22 08:14:51;;;;;;;12.38;4.18;;;;;;;;;;5056019;28;20432;-72
2021/05/22 08:17:19;;;;;;;11.15;4.72;;;;;;;;;;5069941;28;20162;-72
2021/05/22 08:19:46;;;;;;;13.45;5.20;;;;;;;;;;5070024;28;20049;-70
2021/05/22 08:22:13;;;;;;;15.65;4.43;;;;;;;;;;5061264;28;20489;-70
2021/05/22 08:24:40;;;;;;;15.40;4.20;;;;;;;;;;5073704;28;20025;-70
2021/05/22 08:27:08;;;;;;;12.32;5.57;;;;;;;;;;5066412;28;20066;-71
2021/05/22 08:29:35;;;;;;;15.63;5.72;;;;;;;;;;5072442;28;20055;-69
2021/05/22 08:32:02;;;;;;;13.40;5.80;;;;;;;;;;5067479;28;20029;-69
2021/05/22 08:34:29;;;;;;;13.93;5.03;;;;;;;;;;5054509;28;20028;-70
2021/05/22 08:36:56;;;;;;;13.85;6.05;;;;;;;;;;5056991;28;20021;-70
2021/05/22 08:39:23;;;;;;;26.52;6.70;;;;;;;;;;5060903;28;20048;-71
2021/05/22 08:41:51;;;;;;;14.85;6.80;;;;;;;;;;5055454;28;20063;-70
2021/05/22 08:44:18;;;;;;;15.68;5.53;;;;;;;;;;5064432;28;20016;-69
2021/05/22 08:46:48;;;;;;;12.38;5.57;;;;;;;;;;5073615;28;20016;-70
2021/05/22 08:49:16;;;;;;;13.60;4.95;;;;;;;;;;5074928;28;20032;-69
2021/05/22 08:51:44;;;;;;;17.70;8.00;;;;;;;;;;5075240;28;20020;-70
2021/05/22 08:54:11;;;;;;;16.27;7.93;;;;;;;;;;5069419;28;20388;-70
2021/05/22 08:56:38;;;;;;;20.65;10.95;;;;;;;;;;5063392;28;20029;-69
2021/05/22 08:59:07;;;;;;;21.98;11.52;;;;;;;;;;5054682;28;20381;-70
2021/05/22 09:01:37;;;;;;;18.42;10.05;;;;;;;;;;5089333;28;20020;-70
2021/05/22 09:04:06;;;;;;;22.98;12.48;;;;;;;;;;5085398;28;20067;-70
2021/05/22 09:06:33;;;;;;;18.83;9.75;;;;;;;;;;5058415;28;20385;-69
2021/05/22 09:09:01;;;;;;;20.58;8.52;;;;;;;;;;5065996;28;20039;-69
2021/05/22 09:11:31;;;;;;;17.40;9.98;;;;;;;;;;5073140;28;20077;-70
2021/05/22 09:13:58;;;;;;;19.95;9.60;;;;;;;;;;5063588;28;20358;-69
2021/05/22 09:16:35;;;;;;;15.70;8.48;;;;;;;;;;5054154;28;20381;-69
2021/05/22 09:19:02;;;;;;;16.38;7.38;;;;;;;;;;5071319;28;20036;-69
2021/05/22 09:21:35;;;;;;;16.40;8.60;;;;;;;;;;5074031;28;20114;-70
2021/05/22 09:24:02;;;;;;;17.23;7.90;;;;;;;;;;5073435;28;20025;-69
2021/05/22 09:26:34;;;;;;;14.68;7.57;;;;;;;;;;5065083;28;20391;-70
2021/05/22 09:29:02;;;;;;;13.88;7.63;;;;;;;;;;5067032;28;20028;-70
2021/05/22 09:31:29;;;;;;;19.02;7.38;;;;;;;;;;5072983;28;20095;-68
2021/05/22 09:34:00;;;;;;;13.57;6.65;;;;;;;;;;5071526;28;20024;-68
2021/05/22 09:36:27;;;;;;;14.55;7.35;;;;;;;;;;5072827;28;20078;-68
2021/05/22 09:38:56;;;;;;;13.93;6.72;;;;;;;;;;5068662;28;20032;-67
2021/05/22 09:41:27;;;;;;;12.82;5.72;;;;;;;;;;5057151;28;20568;-68
2021/05/22 09:44:07;;;;;;;16.85;7.15;;;;;;;;;;5072344;28;20036;-68
2021/05/22 09:46:35;;;;;;;18.33;7.68;;;;;;;;;;5075313;28;20056;-68
2021/05/22 09:49:04;;;;;;;10.82;5.85;;;;;;;;;;5073287;28;20139;-67
2021/05/22 09:51:31;;;;;;;18.88;8.68;;;;;;;;;;5077086;28;20028;-68
2021/05/22 09:53:58;;;;;;;19.58;8.15;;;;;;;;;;5074763;28;20082;-67
2021/05/22 09:56:26;;;;;;;17.92;9.25;;;;;;;;;;5072407;28;20020;-68
2021/05/22 09:58:58;;;;;;;19.92;10.43;;;;;;;;;;5055052;28;20021;-68
2021/05/22 10:01:30;;;;;;;16.88;8.95;;;;;;;;;;5066240;28;20381;-67
2021/05/22 10:04:17;;;;;;;20.05;9.82;;;;;;;;;;5072720;28;20028;-68
2021/05/22 10:06:44;;;;;;;14.30;8.90;;;;;;;;;;5057285;28;20031;-68
2021/05/22 10:09:16;;;;;;;20.85;9.98;;;;;;;;;;5074210;28;20021;-68
2021/05/22 10:12:03;;;;;;;16.88;9.10;;;;;;;;;;5066292;28;20048;-68
2021/05/22 10:14:37;;;;;;;21.88;9.27;;;;;;;;;;5069352;28;20656;-68
2021/05/22 10:17:05;;;;;;;15.55;8.10;;;;;;;;;;5072788;28;20479;-68
2021/05/22 10:19:33;;;;;;;15.57;8.30;;;;;;;;;;5071545;28;20166;-68
2021/05/22 10:22:01;;;;;;;17.33;8.88;;;;;;;;;;5069083;28;20532;-68
2021/05/22 10:24:28;;;;;;;15.38;9.38;;;;;;;;;;5063460;28;20036;-68
2021/05/22 10:26:56;;;;;;;18.90;9.52;;;;;;;;;;5086090;28;20043;-67
2021/05/22 10:29:24;;;;;;;15.60;9.73;;;;;;;;;;5072227;28;20031;-67
2021/05/22 10:31:52;;;;;;;14.70;9.93;;;;;;;;;;5056094;28;20112;-68
2021/05/22 10:34:23;;;;;;;17.38;9.65;;;;;;;;;;5052616;28;20078;-67
2021/05/22 10:36:53;;;;;;;24.75;10.55;;;;;;;;;;5055493;28;20025;-68
2021/05/22 10:39:41;;;;;;;19.70;11.18;;;;;;;;;;5055258;28;20189;-67
2021/05/22 10:42:24;;;;;;;19.30;10.35;;;;;;;;;;5063079;28;20098;-68
2021/05/22 10:44:51;;;;;;;20.42;11.10;;;;;;;;;;5071205;28;20016;-68
2021/05/22 10:47:19;;;;;;;21.20;11.35;;;;;;;;;;5072671;28;20067;-68
2021/05/22 10:49:52;;;;;;;22.50;11.07;;;;;;;;;;5073004;28;20032;-67
2021/05/22 10:52:21;;;;;;;20.42;10.70;;;;;;;;;;5059894;28;20363;-67
2021/05/22 10:55:01;;;;;;;24.67;10.60;;;;;;;;;;5051832;28;20036;-67
2021/05/22 10:57:29;;;;;;;19.77;10.23;;;;;;;;;;5065979;28;20028;-67
2021/05/22 11:00:14;;;;;;;18.77;10.27;;;;;;;;;;5074540;28;20248;-67
2021/05/22 11:02:44;;;;;;;21.42;10.43;;;;;;;;;;5072006;28;20396;-67
2021/05/22 11:05:36;;;;;;;20.48;10.20;;;;;;;;;;5057047;28;20037;-67
2021/05/22 11:08:06;;;;;;;17.77;10.20;;;;;;;;;;5059800;28;20489;-68
2021/05/22 11:10:43;;;;;;;20.00;11.75;;;;;;;;;;5066118;28;20033;-67
2021/05/22 11:13:12;;;;;;;26.95;16.58;;;;;;;;;;5070896;28;20032;-68
2021/05/22 11:15:44;;;;;;;32.05;22.45;;;;;;;;;;5066947;28;20033;-67
2021/05/22 11:18:12;;;;;;;29.45;17.23;;;;;;;;;;5076163;28;20020;-69
2021/05/22 11:20:41;;;;;;;28.30;16.92;;;;;;;;;;5062895;28;20048;-68
2021/05/22 11:23:08;;;;;;;25.77;16.98;;;;;;;;;;5056257;28;20409;-68
2021/05/22 11:25:50;;;;;;;22.42;16.05;;;;;;;;;;5061742;28;20024;-68
2021/05/22 11:28:21;;;;;;;27.38;16.08;;;;;;;;;;5062402;28;20423;-68
2021/05/22 11:30:49;;;;;;;26.63;14.82;;;;;;;;;;5062988;28;20029;-68
2021/05/22 11:33:22;;;;;;;22.33;13.50;;;;;;;;;;5072440;28;20020;-68
2021/05/22 11:35:51;;;;;;;24.15;14.55;;;;;;;;;;5070453;28;20021;-68
2021/05/22 11:38:18;;;;;;;25.35;13.95;;;;;;;;;;5059602;28;20115;-68
2021/05/22 11:40:45;;;;;;;23.52;13.73;;;;;;;;;;5055742;28;20377;-68
2021/05/22 11:43:16;;;;;;;22.40;14.40;;;;;;;;;;5052110;28;20036;-68
2021/05/22 11:45:45;;;;;;;21.50;12.30;;;;;;;;;;5069544;28;20051;-69
2021/05/22 11:48:22;;;;;;;25.35;13.85;;;;;;;;;;5061601;28;20029;-68
2021/05/22 11:50:49;;;;;;;24.08;13.63;;;;;;;;;;5075602;28;20063;-68
2021/05/22 11:53:17;;;;;;;20.90;14.30;;;;;;;;;;5074472;28;20473;-68
2021/05/22 11:55:45;;;;;;;23.13;12.85;;;;;;;;;;5066448;28;20066;-68
2021/05/22 11:58:12;;;;;;;24.05;12.48;;;;;;;;;;5065286;28;20227;-68
2021/05/22 12:00:40;;;;;;;22.85;12.13;;;;;;;;;;5070170;28;20021;-68
2021/05/22 12:03:07;;;;;;;23.77;13.02;;;;;;;;;;5070453;28;20504;-68
2021/05/22 12:05:44;;;;;;;21.15;14.10;;;;;;;;;;5068068;28;20017;-68
2021/05/22 12:08:20;;;;;;;23.95;14.80;;;;;;;;;;5069955;28;20021;-68
2021/05/22 12:10:47;;;;;;;28.75;16.33;;;;;;;;;;5070618;28;20023;-68
2021/05/22 12:13:15;;;;;;;29.63;17.58;;;;;;;;;;5064409;28;20387;-68
2021/05/22 12:15:43;;;;;;;24.52;17.25;;;;;;;;;;5068896;28;20020;-68
2021/05/22 12:18:13;;;;;;;26.33;17.58;;;;;;;;;;5074776;28;20027;-68
2021/05/22 12:20:57;;;;;;;29.80;17.42;;;;;;;;;;5066650;28;20060;-68
2021/05/22 12:23:29;;;;;;;31.48;17.92;;;;;;;;;;5070191;28;20111;-68
2021/05/22 12:25:57;;;;;;;32.92;18.73;;;;;;;;;;5073985;28;20029;-69
2021/05/22 12:28:24;;;;;;;30.50;18.42;;;;;;;;;;5071394;28;20105;-69
2021/05/22 12:30:58;;;;;;;27.20;17.70;;;;;;;;;;5071129;28;20024;-69
2021/05/22 12:33:25;;;;;;;27.05;17.02;;;;;;;;;;5073404;28;20081;-69
2021/05/22 12:36:05;;;;;;;27.85;16.85;;;;;;;;;;5075271;28;20103;-69
2021/05/22 12:38:43;;;;;;;25.67;17.05;;;;;;;;;;5068917;28;20048;-68
2021/05/22 12:41:10;;;;;;;28.27;17.30;;;;;;;;;;5072146;28;20161;-68
2021/05/22 12:43:45;;;;;;;32.53;18.48;;;;;;;;;;5074814;28;20035;-68
2021/05/22 12:46:11;;;;;;;;;;;;;;;;;;5071016;28;20504;-68
2021/05/22 12:48:38;;;;;;;32.35;16.55;;;;;;;;;;5073526;28;20392;-68
2021/05/22 12:51:22;;;;;;;27.52;16.60;;;;;;;;;;5066967;28;20040;-68
2021/05/22 12:53:49;;;;;;;29.35;16.23;;;;;;;;;;5055868;28;20397;-68
2021/05/22 12:56:19;;;;;;;29.58;17.13;;;;;;;;;;5068888;28;20032;-69
2021/05/22 12:58:47;;;;;;;32.95;17.38;;;;;;;;;;5075295;28;20473;-68
2021/05/22 13:01:18;;;;;;;29.48;17.60;;;;;;;;;;5071732;28;20025;-68
2021/05/22 13:03:49;;;;;;;31.55;17.40;;;;;;;;;;5073145;28;20385;-68
2021/05/22 13:06:28;;;;;;;30.20;17.75;;;;;;;;;;5074468;28;20039;-69
2021/05/22 13:09:15;;;;;;;26.85;17.17;;;;;;;;;;5074621;28;20028;-68
2021/05/22 13:11:56;;;;;;;26.83;16.60;;;;;;;;;;5060953;28;20040;-68
2021/05/22 13:14:23;;;;;;;27.73;16.42;;;;;;;;;;5061115;28;20021;-68
2021/05/22 13:16:57;;;;;;;31.98;16.35;;;;;;;;;;5075337;28;20477;-68
2021/05/22 13:19:43;;;;;;;28.55;15.95;;;;;;;;;;5062844;28;20051;-69
2021/05/22 13:22:24;;;;;;;27.85;16.58;;;;;;;;;;5059323;28;20469;-69
2021/05/22 13:25:02;;;;;;;33.75;17.42;;;;;;;;;;5055064;28;20021;-69
2021/05/22 13:27:29;;;;;;;31.70;16.77;;;;;;;;;;5054619;28;20385;-69
2021/05/22 13:29:57;;;;;;;29.67;15.68;;;;;;;;;;5054349;28;20037;-70
2021/05/22 13:32:24;;;;;;;27.00;16.55;;;;;;;;;;5060441;28;20020;-69
2021/05/22 13:34:52;;;;;;;26.13;16.80;;;;;;;;;;5070232;28;20036;-68
2021/05/22 13:37:20;;;;;;;29.30;16.92;;;;;;;;;;5056356;28;20025;-69
2021/05/22 13:39:48;;;;;;;29.17;17.02;;;;;;;;;;5077389;28;20139;-69
2021/05/22 13:42:15;;;;;;;31.00;16.70;;;;;;;;;;5070286;28;20103;-68
2021/05/22 13:44:42;;;;;;;29.83;17.85;;;;;;;;;;5065855;28;20027;-69
2021/05/22 13:47:09;;;;;;;27.52;18.10;;;;;;;;;;5054171;28;20013;-69
2021/05/22 13:49:37;;;;;;;28.17;18.30;;;;;;;;;;5061925;28;20085;-69
2021/05/22 13:52:04;;;;;;;32.92;18.20;;;;;;;;;;5064300;28;20074;-68
2021/05/22 13:54:31;;;;;;;31.75;17.05;;;;;;;;;;5068707;28;20025;-69
2021/05/22 13:56:59;;;;;;;31.15;17.17;;;;;;;;;;5072910;28;20035;-69
2021/05/22 13:59:26;;;;;;;30.83;17.85;;;;;;;;;;5073890;28;20380;-69
2021/05/22 14:01:53;;;;;;;31.75;17.98;;;;;;;;;;5054576;28;20028;-69
2021/05/22 14:04:20;;;;;;;28.75;16.92;;;;;;;;;;5055194;28;20087;-69
2021/05/22 14:06:47;;;;;;;29.20;16.70;;;;;;;;;;5081511;28;20107;-69
2021/05/22 14:09:14;;;;;;;27.00;17.20;;;;;;;;;;5089625;28;20023;-68
2021/05/22 14:11:42;;;;;;;25.60;15.88;;;;;;;;;;5066298;28;20036;-69
2021/05/22 14:14:09;;;;;;;28.15;16.42;;;;;;;;;;5073489;28;20120;-69
2021/05/22 14:16:36;;;;;;;25.77;17.10;;;;;;;;;;5072818;28;20063;-69
2021/05/22 14:19:03;;;;;;;29.08;16.50;;;;;;;;;;5073259;28;20382;-69
2021/05/22 14:21:30;;;;;;;24.75;15.57;;;;;;;;;;5054888;28;20385;-69
2021/05/22 14:23:58;;;;;;;26.48;15.32;;;;;;;;;;5064395;28;20036;-69
2021/05/22 14:26:26;;;;;;;30.73;15.88;;;;;;;;;;5063279;28;20553;-69
2021/05/22 14:28:53;;;;;;;28.83;15.48;;;;;;;;;;5063048;28;20393;-69
2021/05/22 14:31:20;;;;;;;28.80;14.68;;;;;;;;;;5073466;28;20024;-69
2021/05/22 14:33:47;;;;;;;25.33;15.30;;;;;;;;;;5068208;28;20059;-69
2021/05/22 14:36:14;;;;;;;24.20;14.57;;;;;;;;;;5072576;28;20419;-69
2021/05/22 14:38:42;;;;;;;25.70;16.27;;;;;;;;;;5071267;28;20028;-69
2021/05/22 14:41:09;;;;;;;33.10;15.90;;;;;;;;;;5073496;28;20108;-69
2021/05/22 14:43:36;;;;;;;27.58;15.13;;;;;;;;;;5068106;28;20051;-69
2021/05/22 14:46:03;;;;;;;20.98;14.57;;;;;;;;;;5071073;28;20455;-69